Time;durP1;ratioP1;P1;durP2;ratioP2;P2;SDS_P1;SDS_P2;PMS_P1;PMS_P2;Temp;Humidity;BMP_temperature;BMP_pressure;BME280_temperature;BME280_humidity;BME280_pressure;Samples;Min_cycle;Max_cycle;Signal;HPM_P1;HPM_P2
2022/01/07 00:02:12;;;;;;;9.80;3.55;;;;;;;7.22;61.77;101432.34;5069021;28;20094;-62
2022/01/07 00:04:40;;;;;;;7.22;3.53;;;;;;;7.24;61.41;101430.31;5076309;28;20052;-63
2022/01/07 00:07:08;;;;;;;10.38;3.47;;;;;;;7.24;61.64;101426.81;5065773;28;20045;-63
2022/01/07 00:09:37;;;;;;;7.63;3.35;;;;;;;7.21;61.57;101411.16;5069025;28;20053;-63
2022/01/07 00:12:07;;;;;;;7.55;3.95;;;;;;;7.22;61.82;101413.66;5060459;28;20041;-63
2022/01/07 00:14:34;;;;;;;10.15;3.80;;;;;;;7.18;61.60;101415.03;5059826;28;20048;-63
2022/01/07 00:17:02;;;;;;;10.00;3.47;;;;;;;7.23;61.84;101417.16;5071994;28;20152;-63
2022/01/07 00:19:31;;;;;;;7.05;3.28;;;;;;;7.21;62.17;101405.81;5061508;28;20406;-63
2022/01/07 00:21:59;;;;;;;7.85;3.47;;;;;;;7.22;61.41;101402.94;5061166;28;20522;-63
2022/01/07 00:24:27;;;;;;;10.70;3.80;;;;;;;7.22;61.17;101404.78;5070383;28;20080;-63
2022/01/07 00:26:54;;;;;;;12.43;3.70;;;;;;;7.23;61.61;101409.13;5064685;28;20079;-63
2022/01/07 00:29:22;;;;;;;7.45;3.10;;;;;;;7.24;62.05;101397.41;5070699;28;20076;-62
2022/01/07 00:31:50;;;;;;;8.43;3.10;;;;;;;7.24;62.08;101389.41;5061596;28;20414;-63
2022/01/07 00:34:18;;;;;;;10.30;3.20;;;;;;;7.22;61.80;101383.41;5055471;28;20109;-63
2022/01/07 00:36:47;;;;;;;7.60;3.72;;;;;;;7.22;62.02;101378.06;5062194;28;20087;-63
2022/01/07 00:39:14;;;;;;;12.02;3.65;;;;;;;7.19;61.90;101372.06;5063013;28;20061;-63
2022/01/07 00:41:42;;;;;;;7.35;3.25;;;;;;;7.20;61.63;101372.91;5064225;28;20084;-63
2022/01/07 00:44:10;;;;;;;10.38;4.22;;;;;;;7.20;62.04;101356.88;5063008;28;20430;-63
2022/01/07 00:46:38;;;;;;;13.48;4.10;;;;;;;7.18;61.90;101357.06;5060931;28;20076;-63
2022/01/07 00:49:06;;;;;;;8.35;3.38;;;;;;;7.18;62.41;101346.38;5060466;28;20041;-63
2022/01/07 00:51:33;;;;;;;7.35;3.20;;;;;;;7.16;62.18;101348.41;5067593;28;20081;-63
2022/01/07 00:54:03;;;;;;;6.82;2.90;;;;;;;7.22;61.80;101348.66;5069348;28;20076;-63
2022/01/07 00:56:31;;;;;;;6.22;2.97;;;;;;;7.23;61.86;101342.28;5068254;28;20048;-62
2022/01/07 00:58:58;;;;;;;9.90;2.92;;;;;;;7.21;61.93;101334.47;5068536;28;20078;-63
2022/01/07 01:01:26;;;;;;;11.43;3.33;;;;;;;7.22;61.78;101329.94;5063724;28;20101;-63
2022/01/07 01:03:54;;;;;;;8.65;3.20;;;;;;;7.21;62.27;101331.78;5062208;28;20517;-63
2022/01/07 01:06:22;;;;;;;5.93;2.50;;;;;;;7.21;61.74;101322.94;5073682;28;20537;-60
2022/01/07 01:08:49;;;;;;;9.32;3.33;;;;;;;7.19;61.80;101323.13;5064859;28;20064;-63
2022/01/07 01:11:18;;;;;;;13.32;3.50;;;;;;;7.17;61.83;101314.47;5062935;28;20084;-62
2022/01/07 01:13:46;;;;;;;8.77;3.50;;;;;;;7.18;61.72;101306.28;5060167;28;20076;-63
2022/01/07 01:16:14;;;;;;;8.15;2.75;;;;;;;7.16;61.74;101304.78;5071359;28;20044;-62
2022/01/07 01:18:42;;;;;;;9.05;3.50;;;;;;;7.14;61.66;101302.31;5076421;28;20144;-63
2022/01/07 01:21:09;;;;;;;11.88;3.22;;;;;;;7.16;62.05;101294.94;5066421;28;20055;-63
2022/01/07 01:23:38;;;;;;;8.30;3.30;;;;;;;7.15;62.05;101287.94;5063610;28;20403;-62
2022/01/07 01:26:06;;;;;;;10.52;4.47;;;;;;;7.15;61.71;101290.59;5064847;28;20049;-63
2022/01/07 01:28:35;;;;;;;6.47;2.78;;;;;;;7.15;62.08;101287.94;5073013;28;20045;-63
2022/01/07 01:31:02;;;;;;;11.07;4.00;;;;;;;7.14;61.88;101286.28;5066867;28;20052;-63
2022/01/07 01:33:30;;;;;;;7.60;2.92;;;;;;;7.16;61.97;101286.91;5073991;28;20078;-63
2022/01/07 01:35:58;;;;;;;10.57;3.92;;;;;;;7.08;61.95;101284.34;5075056;28;20083;-62
2022/01/07 01:38:27;;;;;;;6.18;3.10;;;;;;;7.11;61.71;101283.97;5063344;28;20088;-63
2022/01/07 01:40:55;;;;;;;9.27;2.95;;;;;;;7.10;61.83;101268.97;5063400;28;20048;-63
2022/01/07 01:43:22;;;;;;;6.57;2.45;;;;;;;7.10;62.18;101268.97;5076893;28;20091;-63
2022/01/07 01:45:52;;;;;;;6.65;3.00;;;;;;;7.10;61.82;101270.81;5063376;28;20052;-63
2022/01/07 01:48:20;;;;;;;7.95;2.70;;;;;;;7.10;61.83;101271.63;5067077;28;20128;-63
2022/01/07 01:50:48;;;;;;;6.53;2.80;;;;;;;7.10;61.80;101255.59;5078293;28;20557;-64
2022/01/07 01:53:17;;;;;;;7.38;2.78;;;;;;;7.11;61.43;101264.44;5077228;28;20562;-63
2022/01/07 01:55:45;;;;;;;6.68;2.75;;;;;;;7.09;61.82;101247.75;5065631;28;20414;-62
2022/01/07 01:58:14;;;;;;;5.43;2.42;;;;;;;7.10;61.52;101247.56;5066763;28;20048;-63
2022/01/07 02:00:41;;;;;;;8.57;2.85;;;;;;;7.11;61.56;101238.53;5070747;28;20083;-63
2022/01/07 02:03:11;;;;;;;5.90;2.72;;;;;;;7.12;61.46;101218.81;5068486;28;20044;-63
2022/01/07 02:05:38;;;;;;;6.82;2.50;;;;;;;7.09;61.42;101232.56;5067170;28;20068;-63
2022/01/07 02:08:06;;;;;;;7.95;2.63;;;;;;;7.09;61.24;101229.06;5064365;28;20084;-63
2022/01/07 02:10:34;;;;;;;10.10;2.72;;;;;;;7.08;61.52;101230.91;5062022;28;20076;-63
2022/01/07 02:13:02;;;;;;;6.50;2.38;;;;;;;7.07;61.77;101204.38;5070421;28;20048;-64
2022/01/07 02:15:29;;;;;;;9.10;3.15;;;;;;;7.08;61.34;101220.22;5068495;28;20052;-63
2022/01/07 02:17:58;;;;;;;6.95;2.60;;;;;;;7.07;61.27;101226.56;5063556;28;20092;-63
2022/01/07 02:20:29;;;;;;;9.70;2.63;;;;;;;7.05;61.13;101225.94;5066484;28;20214;-63
2022/01/07 02:22:58;;;;;;;12.98;2.88;;;;;;;7.08;61.24;101219.38;5073864;28;20132;-62
2022/01/07 02:25:26;;;;;;;4.20;2.30;;;;;;;7.07;61.44;101210.53;5075233;28;20072;-63
2022/01/07 02:27:55;;;;;;;7.88;2.75;;;;;;;7.04;61.57;101213.59;5065082;28;20045;-63
2022/01/07 02:30:24;;;;;;;5.07;2.10;;;;;;;7.06;61.62;101211.56;5066697;28;20079;-62
2022/01/07 02:32:52;;;;;;;6.80;2.03;;;;;;;7.08;61.71;101206.84;5067666;28;20071;-63
2022/01/07 02:35:21;;;;;;;9.40;3.15;;;;;;;7.06;61.62;101200.88;5075821;28;20422;-63
2022/01/07 02:37:50;;;;;;;7.25;2.90;;;;;;;7.07;61.72;101199.03;5058480;28;20056;-64
2022/01/07 02:40:18;;;;;;;7.30;2.53;;;;;;;7.05;61.91;101201.88;5067664;28;20099;-63
2022/01/07 02:42:46;;;;;;;11.23;2.88;;;;;;;7.09;61.96;101192.47;5067567;28;20122;-63
2022/01/07 02:45:15;;;;;;;6.75;2.20;;;;;;;7.08;61.86;101196.16;5078813;28;20087;-63
2022/01/07 02:47:52;;;;;;;9.02;2.67;;;;;;;7.06;62.27;101194.69;5062707;28;20068;-63
2022/01/07 02:50:22;;;;;;;7.22;2.55;;;;;;;7.07;61.90;101188.34;5061481;28;20098;-63
2022/01/07 02:52:51;;;;;;;9.60;2.47;;;;;;;7.08;61.66;101192.66;5070590;28;20078;-63
2022/01/07 02:55:20;;;;;;;8.27;2.35;;;;;;;7.05;62.34;101188.53;5063092;28;20037;-63
2022/01/07 02:57:48;;;;;;;5.55;2.10;;;;;;;7.05;62.26;101185.84;5062052;28;20144;-63
2022/01/07 03:00:18;;;;;;;6.20;2.38;;;;;;;7.06;62.06;101195.53;5066103;28;20048;-63
2022/01/07 03:02:46;;;;;;;7.88;2.60;;;;;;;7.04;62.43;101186.88;5062966;28;20041;-63
2022/01/07 03:05:14;;;;;;;8.55;2.35;;;;;;;7.05;62.48;101193.03;5075533;28;20109;-63
2022/01/07 03:07:42;;;;;;;9.68;3.15;;;;;;;7.03;62.48;101181.72;5061653;28;20041;-63
2022/01/07 03:10:11;;;;;;;6.40;2.30;;;;;;;7.02;62.29;101180.88;5055188;28;20080;-63
2022/01/07 03:12:42;;;;;;;7.65;2.45;;;;;;;7.01;62.34;101179.22;5058888;28;20076;-63
2022/01/07 03:15:12;;;;;;;6.85;2.95;;;;;;;7.02;62.46;101178.22;5061312;28;20064;-63
2022/01/07 03:17:40;;;;;;;8.77;2.60;;;;;;;7.03;62.68;101171.84;5071029;28;20532;-63
2022/01/07 03:20:11;;;;;;;7.38;2.20;;;;;;;7.01;62.66;101165.03;5072151;28;20083;-63
2022/01/07 03:22:39;;;;;;;10.23;3.15;;;;;;;7.02;62.72;101148.81;5062018;28;20041;-63
2022/01/07 03:25:09;;;;;;;6.65;2.65;;;;;;;7.01;63.03;101147.16;5066000;28;20045;-63
2022/01/07 03:27:39;;;;;;;7.47;2.45;;;;;;;7.01;63.06;101146.34;5068429;28;20533;-63
2022/01/07 03:30:08;;;;;;;7.78;3.03;;;;;;;7.01;63.14;101146.34;5062608;28;20045;-63
2022/01/07 03:32:36;;;;;;;7.80;2.40;;;;;;;6.99;63.30;101146.53;5072909;28;20083;-63
2022/01/07 03:35:05;;;;;;;6.13;2.30;;;;;;;6.97;62.94;101137.88;5060473;28;20048;-63
2022/01/07 03:37:33;;;;;;;6.85;2.38;;;;;;;7.00;63.11;101145.50;5059797;28;20068;-63
2022/01/07 03:40:00;;;;;;;6.15;2.25;;;;;;;7.01;62.75;101144.50;5067739;28;20092;-63
2022/01/07 03:42:28;;;;;;;5.40;2.45;;;;;;;6.99;63.30;101143.03;5062096;28;20053;-63
2022/01/07 03:44:57;;;;;;;5.30;1.90;;;;;;;6.98;63.22;101142.22;5065705;28;20068;-63
2022/01/07 03:47:25;;;;;;;4.40;2.28;;;;;;;6.96;63.53;101138.91;5064439;28;20044;-63
2022/01/07 03:49:52;;;;;;;7.28;2.28;;;;;;;6.96;63.42;101132.72;5070080;28;20072;-63
2022/01/07 03:52:20;;;;;;;7.80;2.53;;;;;;;6.96;63.28;101130.88;5067615;28;20080;-63
2022/01/07 03:54:48;;;;;;;7.25;2.10;;;;;;;6.95;63.53;101128.41;5066784;28;20060;-63
2022/01/07 03:57:16;;;;;;;9.70;2.70;;;;;;;6.85;63.59;101121.56;5061944;28;20080;-63
2022/01/07 03:59:43;;;;;;;8.93;3.10;;;;;;;6.94;63.33;101127.56;5065579;28;20045;-63
2022/01/07 04:02:12;;;;;;;14.73;3.45;;;;;;;6.93;63.53;101123.28;5068340;28;20083;-64
2022/01/07 04:04:40;;;;;;;5.70;2.67;;;;;;;6.96;63.39;101124.72;5074711;28;20433;-63
2022/01/07 04:07:08;;;;;;;5.55;2.28;;;;;;;6.96;63.73;101119.38;5062740;28;20041;-64
2022/01/07 04:09:36;;;;;;;6.68;3.13;;;;;;;6.95;63.83;101117.72;5062563;28;20056;-64
2022/01/07 04:12:05;;;;;;;6.80;2.72;;;;;;;6.96;63.42;101116.69;5063266;28;20058;-64
2022/01/07 04:14:33;;;;;;;4.30;2.10;;;;;;;6.95;63.87;101118.53;5075408;28;20059;-64
2022/01/07 04:17:01;;;;;;;6.50;2.70;;;;;;;6.94;63.54;101114.22;5062239;28;20135;-63
2022/01/07 04:19:30;;;;;;;8.70;2.92;;;;;;;6.95;63.90;101118.53;5065394;28;20076;-64
2022/01/07 04:21:57;;;;;;;8.93;2.33;;;;;;;6.96;63.79;101108.69;5067530;28;20136;-64
2022/01/07 04:24:25;;;;;;;9.68;2.30;;;;;;;6.95;64.12;101110.53;5061895;28;20076;-63
2022/01/07 04:26:53;;;;;;;3.45;1.83;;;;;;;6.94;63.96;101100.03;5063903;28;20052;-64
2022/01/07 04:29:21;;;;;;;7.65;2.53;;;;;;;6.95;64.03;101110.53;5060117;28;20107;-64
2022/01/07 04:31:48;;;;;;;4.50;2.20;;;;;;;6.96;64.18;101106.84;5064084;28;20060;-64
2022/01/07 04:34:16;;;;;;;5.85;2.35;;;;;;;6.97;63.71;101103.16;5067341;28;20059;-63
2022/01/07 04:36:45;;;;;;;6.53;2.17;;;;;;;6.96;63.90;101109.50;5062288;28;20163;-64
2022/01/07 04:39:13;;;;;;;4.93;2.35;;;;;;;6.96;64.11;101106.84;5057374;28;20073;-64
2022/01/07 04:41:41;;;;;;;4.50;2.00;;;;;;;6.98;64.14;101103.97;5060794;28;20087;-64
2022/01/07 04:44:08;;;;;;;6.30;2.17;;;;;;;6.97;64.15;101113.84;5060519;28;20506;-64
2022/01/07 04:46:36;;;;;;;4.78;2.78;;;;;;;6.93;64.35;101106.41;5071712;28;20045;-64
2022/01/07 04:49:04;;;;;;;4.45;1.95;;;;;;;6.96;63.99;101104.16;5060963;28;20068;-64
2022/01/07 04:51:32;;;;;;;5.35;1.88;;;;;;;6.96;64.02;101112.19;5063881;28;20087;-64
2022/01/07 04:54:01;;;;;;;4.97;2.20;;;;;;;6.96;63.97;101106.84;5076055;28;20095;-64
2022/01/07 04:56:28;;;;;;;5.95;2.13;;;;;;;6.94;64.17;101095.50;5069295;28;20545;-64
2022/01/07 04:58:56;;;;;;;4.70;2.50;;;;;;;6.94;64.24;101100.03;5069448;28;20171;-64
2022/01/07 05:01:24;;;;;;;4.78;2.40;;;;;;;6.93;64.57;101098.41;5064644;28;20087;-64
2022/01/07 05:03:52;;;;;;;5.80;1.85;;;;;;;6.93;64.29;101098.41;5068074;28;20128;-64
2022/01/07 05:06:44;;;;;;;5.10;2.28;;;;;;;6.92;64.18;101092.22;5065255;28;20076;-64
2022/01/07 05:09:16;;;;;;;6.15;2.35;;;;;;;6.91;64.53;101100.44;5063561;28;20049;-64
2022/01/07 05:11:44;;;;;;;5.43;2.63;;;;;;;6.92;64.34;101102.91;5058877;28;20056;-64
2022/01/07 05:14:12;;;;;;;4.28;2.15;;;;;;;6.88;64.59;101093.63;5074105;28;20052;-64
2022/01/07 05:16:39;;;;;;;7.47;2.33;;;;;;;6.91;64.38;101106.63;5068101;28;20094;-64
2022/01/07 05:19:07;;;;;;;4.45;2.03;;;;;;;6.89;64.72;101100.63;5069313;28;20073;-64
2022/01/07 05:21:35;;;;;;;4.35;2.08;;;;;;;6.90;64.46;101102.28;5063784;28;20041;-63
2022/01/07 05:24:04;;;;;;;3.70;2.08;;;;;;;6.92;64.63;101094.09;5065421;28;20069;-64
2022/01/07 05:26:33;;;;;;;4.28;2.45;;;;;;;6.90;65.13;101091.59;5068056;28;20060;-64
2022/01/07 05:29:01;;;;;;;3.88;2.22;;;;;;;6.92;64.82;101092.22;5071509;28;20079;-63
2022/01/07 05:31:29;;;;;;;5.20;2.33;;;;;;;6.81;64.66;101079.41;5068710;28;20095;-64
2022/01/07 05:33:56;;;;;;;4.80;2.03;;;;;;;6.90;65.14;101090.78;5070593;28;20112;-64
2022/01/07 05:36:25;;;;;;;6.18;2.33;;;;;;;6.91;64.92;101085.25;5064768;28;20040;-64
2022/01/07 05:38:53;;;;;;;3.88;2.40;;;;;;;6.91;65.18;101077.22;5062155;28;20061;-63
2022/01/07 05:41:21;;;;;;;3.20;2.00;;;;;;;6.93;65.06;101079.72;5071103;28;20056;-64
2022/01/07 05:43:50;;;;;;;3.42;2.20;;;;;;;6.91;65.09;101079.91;5082388;28;20048;-63
2022/01/07 05:46:18;;;;;;;4.20;2.28;;;;;;;6.91;64.92;101079.91;5069400;28;20084;-64
2022/01/07 05:48:47;;;;;;;3.33;2.03;;;;;;;6.90;64.93;101066.72;5063442;28;20053;-64
2022/01/07 05:51:15;;;;;;;3.95;2.03;;;;;;;6.88;65.01;101072.25;5064770;28;20072;-64
2022/01/07 05:53:43;;;;;;;6.32;2.67;;;;;;;6.88;65.01;101069.59;5067042;28;20052;-63
2022/01/07 05:56:11;;;;;;;5.45;2.30;;;;;;;6.87;65.31;101069.78;5076500;28;20141;-63
2022/01/07 05:58:38;;;;;;;2.63;1.83;;;;;;;6.87;65.12;101051.09;5077771;28;20075;-63
2022/01/07 06:01:09;;;;;;;5.85;2.28;;;;;;;6.88;64.96;101063.44;5062556;28;20471;-64
2022/01/07 06:03:38;;;;;;;4.10;2.42;;;;;;;6.96;65.00;101060.59;5062064;28;20071;-64
2022/01/07 06:06:06;;;;;;;3.92;2.45;;;;;;;7.06;64.52;101061.91;5063449;28;20075;-64
2022/01/07 06:08:33;;;;;;;5.35;2.20;;;;;;;7.20;64.57;101060.16;5062321;28;20091;-64
2022/01/07 06:11:02;;;;;;;3.35;2.03;;;;;;;7.37;63.79;101050.00;5064483;28;20072;-64
2022/01/07 06:13:29;;;;;;;4.78;2.25;;;;;;;7.54;63.19;101051.34;4704475;28;9999783;-63
2022/01/07 06:15:57;;;;;;;4.13;2.35;;;;;;;7.75;62.19;101059.28;5055223;28;20080;-63
2022/01/07 06:18:26;;;;;;;5.07;2.20;;;;;;;7.82;62.33;101057.47;5064064;28;20053;-63
2022/01/07 06:20:54;;;;;;;4.50;2.15;;;;;;;7.80;62.36;101051.47;5070595;28;20470;-61
2022/01/07 06:23:22;;;;;;;4.70;2.03;;;;;;;7.76;62.37;101052.91;5072748;28;20242;-63
2022/01/07 06:25:49;;;;;;;2.85;2.10;;;;;;;7.71;62.36;101065.22;5064275;28;20277;-63
2022/01/07 06:28:17;;;;;;;5.45;2.40;;;;;;;7.69;62.85;101056.56;5064656;28;20053;-63
2022/01/07 06:30:45;;;;;;;5.07;2.03;;;;;;;7.78;62.59;101056.22;5060901;28;20131;-64
2022/01/07 06:33:13;;;;;;;3.40;1.90;;;;;;;7.88;62.48;101063.88;5062155;28;20159;-64
2022/01/07 06:35:42;;;;;;;6.20;1.90;;;;;;;7.88;62.69;101055.00;5071840;28;20135;-64
2022/01/07 06:38:10;;;;;;;4.38;2.33;;;;;;;7.81;62.34;101054.97;5056689;28;20041;-63
2022/01/07 06:40:37;;;;;;;6.40;2.35;;;;;;;7.75;62.39;101042.41;5061442;28;20116;-66
2022/01/07 06:43:05;;;;;;;7.28;2.67;;;;;;;7.72;63.38;101045.47;5060286;28;20468;-61
2022/01/07 06:45:33;;;;;;;8.82;2.53;;;;;;;7.63;62.92;101050.16;5070933;28;20108;-62
2022/01/07 06:48:01;;;;;;;4.68;2.05;;;;;;;7.56;64.27;101051.97;5061385;28;20083;-59
2022/01/07 06:50:28;;;;;;;7.85;2.60;;;;;;;7.53;64.39;101052.38;5063986;28;20072;-61
2022/01/07 06:52:57;;;;;;;5.70;2.97;;;;;;;7.48;63.72;101060.16;5069893;28;20092;-60
2022/01/07 06:55:41;;;;;;;5.22;2.55;;;;;;;7.43;64.33;101060.75;5069704;28;20064;-60
2022/01/07 06:58:09;;;;;;;4.07;2.38;;;;;;;7.39;64.48;101067.50;5058197;28;20757;-61
2022/01/07 07:00:37;;;;;;;6.57;2.50;;;;;;;7.37;64.63;101064.19;5058498;28;20120;-60
2022/01/07 07:03:05;;;;;;;4.28;2.30;;;;;;;7.44;64.15;101061.56;5058766;28;20049;-62
2022/01/07 07:05:33;;;;;;;6.18;2.60;;;;;;;7.55;64.03;101061.00;5056624;28;20369;-62
2022/01/07 07:08:02;;;;;;;10.52;2.72;;;;;;;7.67;63.71;101062.13;5057435;28;20080;-62
2022/01/07 07:10:30;;;;;;;5.60;2.67;;;;;;;7.81;63.42;101071.84;5062122;28;20072;-63
2022/01/07 07:12:57;;;;;;;5.65;2.40;;;;;;;7.97;62.17;101070.69;5062545;28;20056;-64
2022/01/07 07:15:25;;;;;;;4.53;2.35;;;;;;;8.10;61.89;101070.75;5048831;28;20280;-64
2022/01/07 07:17:53;;;;;;;4.97;2.30;;;;;;;8.22;61.93;101062.97;5064973;28;20076;-64
2022/01/07 07:20:20;;;;;;;7.50;3.15;;;;;;;8.34;60.87;101065.94;5066869;28;20084;-64
2022/01/07 07:22:48;;;;;;;4.30;2.53;;;;;;;8.47;61.40;101065.97;5070989;28;20171;-65
2022/01/07 07:25:18;;;;;;;5.28;2.65;;;;;;;8.55;60.70;101067.63;5059957;28;20045;-66
2022/01/07 07:27:46;;;;;;;9.60;2.83;;;;;;;8.58;61.31;101059.19;5059348;28;20053;-66
2022/01/07 07:30:14;;;;;;;9.23;2.40;;;;;;;8.62;59.97;101066.59;5069223;28;20064;-66
2022/01/07 07:32:42;;;;;;;6.32;3.28;;;;;;;8.67;61.10;101063.28;5064644;28;20409;-65
2022/01/07 07:37:56;;;;;;;6.70;2.83;;;;;;;8.71;60.56;101057.31;5066760;28;20080;-65
2022/01/07 07:40:25;;;;;;;4.95;2.75;;;;;;;8.71;60.30;101064.53;5060285;28;20389;-64
2022/01/07 07:42:54;;;;;;;5.25;2.75;;;;;;;8.73;60.03;101070.50;5049204;28;20053;-64
2022/01/07 07:45:22;;;;;;;6.15;2.38;;;;;;;8.62;59.88;101069.28;5061653;28;20076;-65
2022/01/07 07:47:49;;;;;;;4.88;2.60;;;;;;;8.51;61.42;101069.06;5067887;28;20086;-65
2022/01/07 07:50:17;;;;;;;8.32;3.10;;;;;;;8.35;61.67;101057.69;5069423;28;20076;-64
2022/01/07 07:52:45;;;;;;;5.75;2.80;;;;;;;8.20;62.23;101051.63;5062381;28;20083;-64
2022/01/07 07:55:13;;;;;;;4.75;2.35;;;;;;;8.09;62.43;101057.56;5061764;28;20053;-64
2022/01/07 07:57:42;;;;;;;7.53;3.15;;;;;;;7.98;62.76;101056.28;5062507;28;20201;-64
2022/01/07 08:00:11;;;;;;;8.52;3.28;;;;;;;7.90;63.31;101059.13;5057625;28;20067;-65
2022/01/07 08:02:39;;;;;;;6.03;2.92;;;;;;;7.83;63.52;101064.47;5063816;28;20416;-64
2022/01/07 08:05:08;;;;;;;4.45;2.63;;;;;;;7.81;63.45;101063.00;5056997;28;20132;-65
2022/01/07 08:07:35;;;;;;;7.65;3.65;;;;;;;7.86;63.48;101068.59;5058224;28;20048;-64
2022/01/07 08:10:04;;;;;;;7.28;3.17;;;;;;;7.98;63.12;101064.31;5068810;28;20084;-64
2022/01/07 08:12:51;;;;;;;4.68;2.95;;;;;;;8.13;62.90;101065.00;5067079;28;20175;-64
2022/01/07 08:18:06;;;;;;;6.88;2.78;;;;;;;8.43;62.27;101054.81;5066591;28;20108;-64
2022/01/07 08:20:34;;;;;;;8.70;3.67;;;;;;;8.57;61.52;101058.34;5071431;28;20606;-65
2022/01/07 08:23:02;;;;;;;5.22;2.78;;;;;;;8.72;60.99;101045.56;5071794;28;20061;-64
2022/01/07 08:25:31;;;;;;;5.53;2.58;;;;;;;8.83;60.77;101030.72;5057777;28;20072;-64
2022/01/07 08:28:01;;;;;;;6.60;3.10;;;;;;;8.90;60.94;101041.47;5062892;28;20045;-64
2022/01/07 08:30:36;;;;;;;6.10;2.92;;;;;;;8.94;60.54;101042.69;5062645;28;20049;-64
2022/01/07 08:35:50;;;;;;;6.43;2.63;;;;;;;8.96;60.01;101049.50;5056910;28;20052;-64
2022/01/07 08:38:18;;;;;;;6.03;2.70;;;;;;;9.00;60.18;101045.38;5058269;28;20049;-64
2022/01/07 08:40:46;;;;;;;6.70;3.55;;;;;;;8.98;60.26;101047.44;5060836;28;20073;-66
2022/01/07 08:43:13;;;;;;;8.80;3.17;;;;;;;9.07;60.01;101037.31;5060201;28;20108;-65
2022/01/07 08:45:44;;;;;;;5.90;3.15;;;;;;;9.09;60.31;101035.25;5068281;28;20053;-65
2022/01/07 08:48:12;;;;;;;5.35;3.08;;;;;;;8.90;59.79;101018.16;5057337;28;20333;-65
2022/01/07 08:50:40;;;;;;;5.72;2.70;;;;;;;8.89;60.86;101037.94;5065048;28;20076;-64
2022/01/07 08:53:08;;;;;;;7.47;2.85;;;;;;;8.73;60.96;101033.81;5061695;28;20755;-64
2022/01/07 08:55:36;;;;;;;4.18;2.67;;;;;;;8.58;61.93;101037.75;5060681;28;20080;-65
2022/01/07 08:58:04;;;;;;;5.53;2.50;;;;;;;8.42;63.05;101053.19;5062594;28;20048;-64
2022/01/07 09:00:32;;;;;;;8.57;3.55;;;;;;;8.31;62.37;101056.41;5069712;28;20087;-64
2022/01/07 09:03:01;;;;;;;6.32;2.97;;;;;;;8.22;63.11;101067.50;5057504;28;20052;-64
2022/01/07 09:05:29;;;;;;;7.40;2.75;;;;;;;8.13;63.18;101062.31;5058739;28;20057;-65
2022/01/07 09:07:57;;;;;;;4.43;2.58;;;;;;;8.05;63.30;101059.00;5061267;28;20045;-65
2022/01/07 09:10:25;;;;;;;8.60;3.10;;;;;;;7.98;64.14;101055.47;5057773;28;20148;-64
2022/01/07 09:12:53;;;;;;;8.88;3.28;;;;;;;7.92;63.85;101051.75;5057696;28;20072;-65
2022/01/07 09:15:21;;;;;;;6.53;2.50;;;;;;;7.89;64.87;101057.50;5061444;28;20059;-65
2022/01/07 09:17:49;;;;;;;7.82;3.20;;;;;;;7.92;64.21;101059.78;5066198;28;20091;-64
2022/01/07 09:20:20;;;;;;;6.05;2.90;;;;;;;8.06;63.87;101058.78;5062064;28;20091;-64
2022/01/07 09:22:48;;;;;;;8.68;2.90;;;;;;;8.20;63.05;101051.63;5067405;28;20052;-64
2022/01/07 09:25:16;;;;;;;5.25;2.70;;;;;;;8.35;63.13;101059.53;5055393;28;20117;-65
2022/01/07 09:27:44;;;;;;;6.32;3.28;;;;;;;8.48;62.61;101056.91;5052265;28;20083;-64
2022/01/07 09:30:13;;;;;;;7.13;2.67;;;;;;;8.69;62.33;101050.50;5059772;28;20079;-65
2022/01/07 09:32:41;;;;;;;4.70;2.30;;;;;;;8.79;61.27;101050.94;5055682;28;20131;-64
2022/01/07 09:35:11;;;;;;;7.07;2.50;;;;;;;8.90;61.14;101055.69;5070794;28;20075;-64
2022/01/07 09:37:40;;;;;;;6.57;2.55;;;;;;;8.99;60.39;101056.31;5061061;28;20049;-64
2022/01/07 09:40:09;;;;;;;7.60;3.28;;;;;;;9.06;60.69;101043.72;5071387;28;20462;-64
2022/01/07 09:42:37;;;;;;;8.48;3.10;;;;;;;9.02;61.20;101039.81;5064862;28;20080;-64
2022/01/07 09:45:06;;;;;;;5.00;2.28;;;;;;;8.90;61.84;101042.28;5070711;28;20055;-66
2022/01/07 09:47:34;;;;;;;14.05;3.45;;;;;;;8.79;61.91;101040.22;5064558;28;20073;-67
2022/01/07 09:50:08;;;;;;;5.75;2.90;;;;;;;8.62;62.43;101039.00;5062942;28;20094;-66
2022/01/07 09:52:40;;;;;;;5.68;3.03;;;;;;;8.50;62.50;101045.97;5068957;28;20082;-64
2022/01/07 09:55:09;;;;;;;7.25;2.88;;;;;;;8.42;63.48;101053.19;5072778;28;20479;-65
2022/01/07 09:57:36;;;;;;;7.32;2.78;;;;;;;8.35;62.97;101048.84;5054052;28;20045;-65
2022/01/07 10:00:06;;;;;;;5.57;2.75;;;;;;;8.28;63.25;101040.75;5069686;28;20589;-67
2022/01/07 10:02:34;;;;;;;4.43;2.28;;;;;;;8.25;63.80;101043.81;5067729;28;20083;-66
2022/01/07 10:05:15;;;;;;;6.80;3.45;;;;;;;8.18;64.14;101042.97;5067126;28;20053;-66
2022/01/07 10:07:45;;;;;;;6.93;2.53;;;;;;;8.16;64.30;101037.00;5066361;28;20522;-67
2022/01/07 10:10:17;;;;;;;6.03;2.50;;;;;;;8.09;64.19;101031.63;5073449;28;20395;-64
2022/01/07 10:12:53;;;;;;;5.75;2.45;;;;;;;8.07;64.49;101027.50;5076504;28;20106;-68
2022/01/07 10:15:23;;;;;;;8.48;2.75;;;;;;;8.01;64.66;101028.31;5052367;28;20081;-67
2022/01/07 10:17:56;;;;;;;5.72;2.47;;;;;;;7.89;64.91;101009.31;5058648;28;20052;-67
2022/01/07 10:20:25;;;;;;;4.80;2.42;;;;;;;7.92;65.29;101029.50;5066512;28;20040;-67
2022/01/07 10:22:56;;;;;;;8.63;3.13;;;;;;;7.90;64.79;101029.72;5074767;28;20053;-67
2022/01/07 10:25:27;;;;;;;9.90;2.75;;;;;;;7.88;65.02;101029.09;5063700;28;20048;-68
2022/01/07 10:28:00;;;;;;;7.82;2.60;;;;;;;7.87;65.05;101027.44;5065792;28;20179;-65
2022/01/07 10:30:34;;;;;;;6.68;2.33;;;;;;;7.86;65.92;101032.97;5067173;28;20045;-71
2022/01/07 10:33:16;;;;;;;8.07;2.95;;;;;;;7.84;65.98;101028.66;5075270;28;20049;-64
2022/01/07 10:35:45;;;;;;;11.77;2.55;;;;;;;7.79;65.99;101027.59;5063052;28;20052;-68
2022/01/07 10:38:19;;;;;;;8.82;2.60;;;;;;;7.76;65.67;101011.94;5060972;28;20096;-68
2022/01/07 10:40:48;;;;;;;4.53;2.38;;;;;;;7.81;65.65;101022.88;5075487;28;20210;-68
2022/01/07 10:43:18;;;;;;;5.90;2.53;;;;;;;7.80;65.75;101019.38;5063350;28;20498;-68
2022/01/07 10:45:50;;;;;;;8.15;2.63;;;;;;;7.89;66.06;101008.50;5062909;28;20260;-68
2022/01/07 10:48:20;;;;;;;5.03;2.55;;;;;;;8.03;65.63;101010.19;5059885;28;20048;-69
2022/01/07 10:50:50;;;;;;;4.38;2.72;;;;;;;8.18;65.39;100997.47;5062602;28;20175;-69
2022/01/07 10:53:27;;;;;;;8.15;2.90;;;;;;;8.40;64.10;100993.63;5072011;28;20053;-68
2022/01/07 10:56:01;;;;;;;6.68;2.53;;;;;;;8.53;64.27;100997.34;5064433;28;20212;-62
2022/01/07 10:58:35;;;;;;;6.65;2.50;;;;;;;8.69;63.47;101004.97;5063982;28;20041;-67
2022/01/07 11:01:03;;;;;;;4.72;2.35;;;;;;;8.74;63.29;101007.84;5069930;28;20144;-64
2022/01/07 11:03:33;;;;;;;6.03;2.20;;;;;;;8.69;63.34;101002.28;5062951;28;20081;-64
2022/01/07 11:06:04;;;;;;;8.30;2.60;;;;;;;8.63;63.09;100995.09;5068458;28;20053;-64
2022/01/07 11:08:33;;;;;;;4.38;2.08;;;;;;;8.63;63.39;100997.78;5076178;28;20060;-64
2022/01/07 11:11:01;;;;;;;4.85;2.13;;;;;;;8.59;63.24;101002.72;5061559;28;20593;-69
2022/01/07 11:13:30;;;;;;;5.15;2.45;;;;;;;8.55;63.60;101003.34;5068839;28;20048;-66
2022/01/07 11:15:57;;;;;;;6.18;2.20;;;;;;;8.50;63.77;101003.13;5069317;28;20057;-67
2022/01/07 11:18:25;;;;;;;5.82;2.63;;;;;;;8.47;64.36;101005.19;5068478;28;20117;-66
2022/01/07 11:20:57;;;;;;;7.75;3.15;;;;;;;8.42;63.89;101002.28;5062920;28;20056;-66
2022/01/07 11:23:25;;;;;;;5.38;2.53;;;;;;;8.38;64.64;101006.41;5075086;28;20059;-65
2022/01/07 11:26:01;;;;;;;6.50;2.60;;;;;;;8.38;64.31;101008.25;5058674;28;20099;-66
2022/01/07 11:28:30;;;;;;;6.38;2.53;;;;;;;8.32;64.88;100984.94;5057333;28;20064;-65
2022/01/07 11:31:04;;;;;;;6.35;2.78;;;;;;;8.32;64.59;101001.81;5061014;28;20041;-65
2022/01/07 11:33:32;;;;;;;6.07;2.00;;;;;;;8.27;65.25;101000.78;5065355;28;20076;-65
2022/01/07 11:36:00;;;;;;;5.53;2.05;;;;;;;8.25;64.94;100992.97;5063520;28;20045;-65
2022/01/07 11:38:38;;;;;;;5.63;2.58;;;;;;;8.25;65.05;101002.84;5064588;28;20060;-65
2022/01/07 11:41:11;;;;;;;7.28;1.90;;;;;;;8.23;65.87;101000.38;5063865;28;20057;-63
2022/01/07 11:43:42;;;;;;;9.70;2.80;;;;;;;8.22;66.51;100996.03;4712592;28;10000118;-63
2022/01/07 11:46:29;;;;;;;5.93;2.20;;;;;;;8.22;66.06;100998.72;5059592;28;20130;-65
2022/01/07 11:49:00;;;;;;;6.85;2.47;;;;;;;8.19;65.62;100996.44;5068832;28;20060;-66